createdAt,value
2022-11-13T00:00:56.933Z,75.90
2022-11-13T00:03:24.041Z,76.33
2022-11-13T00:06:01.205Z,74.87
2022-11-13T00:08:28.247Z,73.03
2022-11-13T00:11:10.110Z,71.10
2022-11-13T00:13:37.268Z,73.87
2022-11-13T00:16:07.110Z,68.90
2022-11-13T00:18:38.081Z,68.90
2022-11-13T00:21:12.959Z,62.93
2022-11-13T00:23:39.989Z,71.80
2022-11-13T00:26:11.579Z,73.17
2022-11-13T00:28:38.665Z,68.87
2022-11-13T00:31:06.546Z,70.53
2022-11-13T00:36:26.602Z,64.57
2022-11-13T00:39:04.301Z,67.27
2022-11-13T00:41:35.535Z,64.73
2022-11-13T00:44:04.079Z,70.07
2022-11-13T00:46:31.021Z,65.33
2022-11-13T00:48:57.976Z,60.97
2022-11-13T00:51:24.878Z,62.17
2022-11-13T00:53:51.908Z,65.10
2022-11-13T00:56:18.855Z,63.93
2022-11-13T00:58:45.917Z,64.17
2022-11-13T01:01:16.378Z,65.57
2022-11-13T01:03:43.832Z,65.37
2022-11-13T01:06:15.496Z,68.33
2022-11-13T01:08:42.432Z,71.20
2022-11-13T01:11:12.257Z,70.33
2022-11-13T01:13:40.969Z,66.40
2022-11-13T01:16:11.056Z,73.47
2022-11-13T01:18:38.322Z,66.67
2022-11-13T01:21:06.332Z,72.70
2022-11-13T01:23:33.694Z,68.90
2022-11-13T01:26:16.976Z,66.07
2022-11-13T01:28:52.170Z,68.90
2022-11-13T01:31:23.621Z,60.67
2022-11-13T01:33:51.389Z,67.47
2022-11-13T01:36:24.424Z,65.00
2022-11-13T01:38:51.859Z,68.20
2022-11-13T01:41:27.112Z,66.53
2022-11-13T01:43:57.678Z,66.80
2022-11-13T01:46:33.629Z,64.53
2022-11-13T01:49:12.866Z,61.10
2022-11-13T01:51:41.623Z,63.33
2022-11-13T01:54:15.271Z,66.70
2022-11-13T01:56:47.762Z,66.17
2022-11-13T01:59:18.658Z,67.17
2022-11-13T02:01:45.637Z,68.23
2022-11-13T02:04:12.619Z,66.27
2022-11-13T02:07:00.404Z,64.70
2022-11-13T02:09:31.147Z,65.83
2022-11-13T02:11:59.236Z,64.33
2022-11-13T02:14:28.902Z,62.97
2022-11-13T02:17:06.608Z,64.43
2022-11-13T02:19:37.129Z,64.77
2022-11-13T02:22:28.633Z,67.37
2022-11-13T02:24:58.637Z,61.87
2022-11-13T02:27:38.163Z,67.23
2022-11-13T02:30:34.447Z,62.47
2022-11-13T02:33:01.603Z,66.33
2022-11-13T02:35:35.320Z,72.10
2022-11-13T02:38:06.098Z,65.67
2022-11-13T02:40:34.233Z,65.83
2022-11-13T02:43:01.200Z,68.67
2022-11-13T02:45:28.045Z,68.23
2022-11-13T02:47:54.906Z,67.43
2022-11-13T02:50:21.796Z,71.43
2022-11-13T02:52:48.687Z,64.40
2022-11-13T02:55:15.603Z,69.60
2022-11-13T02:57:42.377Z,68.47
2022-11-13T03:00:13.867Z,69.30
2022-11-13T03:02:41.446Z,81.90
2022-11-13T03:05:13.553Z,64.63
2022-11-13T03:07:41.342Z,67.73
2022-11-13T03:10:09.635Z,65.33
2022-11-13T03:12:36.893Z,63.43
2022-11-13T03:15:05.073Z,65.00
2022-11-13T03:17:32.743Z,64.60
2022-11-13T03:19:59.772Z,65.57
2022-11-13T03:22:27.805Z,63.10
2022-11-13T03:24:54.607Z,73.80
2022-11-13T03:27:22.817Z,72.23
2022-11-13T03:29:49.732Z,61.87
2022-11-13T03:32:16.573Z,73.30
2022-11-13T03:34:43.384Z,65.13
2022-11-13T03:37:10.193Z,68.20
2022-11-13T03:39:36.997Z,63.83
2022-11-13T03:42:03.845Z,64.10
2022-11-13T03:44:30.649Z,62.70
2022-11-13T03:46:58.024Z,60.87
2022-11-13T03:49:24.966Z,61.67
2022-11-13T03:51:51.792Z,58.67
2022-11-13T03:54:18.710Z,61.73
2022-11-13T03:56:45.494Z,67.53
2022-11-13T03:59:12.315Z,60.00
2022-11-13T04:01:39.226Z,59.27
2022-11-13T04:04:06.056Z,59.53
2022-11-13T04:06:32.811Z,60.03
2022-11-13T04:08:59.612Z,63.30
2022-11-13T04:11:26.402Z,61.70
2022-11-13T04:13:53.183Z,63.40
2022-11-13T04:16:20.003Z,55.20
2022-11-13T04:18:46.799Z,58.00
2022-11-13T04:21:13.801Z,54.07
2022-11-13T04:23:40.558Z,64.03
2022-11-13T04:26:07.385Z,60.87
2022-11-13T04:28:34.186Z,59.83
2022-11-13T04:31:01.165Z,68.13
2022-11-13T04:33:27.939Z,55.10
2022-11-13T04:35:54.814Z,66.73
2022-11-13T04:38:21.681Z,65.73
2022-11-13T04:41:12.289Z,66.70
2022-11-13T04:43:39.170Z,64.33
2022-11-13T04:46:06.131Z,63.10
2022-11-13T04:48:33.117Z,70.03
2022-11-13T04:50:59.883Z,66.20
2022-11-13T04:53:26.806Z,62.40
2022-11-13T04:55:54.015Z,61.27
2022-11-13T04:58:20.937Z,70.80
2022-11-13T05:00:47.769Z,65.10
2022-11-13T05:03:14.622Z,61.07
2022-11-13T05:05:41.440Z,61.60
2022-11-13T05:08:08.212Z,69.43
2022-11-13T05:10:35.013Z,63.43
2022-11-13T05:13:01.801Z,65.83
2022-11-13T05:15:28.654Z,63.73
2022-11-13T05:17:55.892Z,64.23
2022-11-13T05:20:22.754Z,64.33
2022-11-13T05:22:51.188Z,64.83
2022-11-13T05:25:17.972Z,64.57
2022-11-13T05:27:44.765Z,64.00
2022-11-13T05:30:11.737Z,64.20
2022-11-13T05:32:38.552Z,60.77
2022-11-13T05:35:05.668Z,59.40
2022-11-13T05:37:32.407Z,66.33
2022-11-13T05:39:59.183Z,60.57
2022-11-13T05:42:25.957Z,59.23
2022-11-13T05:44:52.722Z,58.20
2022-11-13T05:47:19.515Z,60.37
2022-11-13T05:49:46.427Z,69.67
2022-11-13T05:52:13.254Z,61.13
2022-11-13T05:54:40.052Z,60.70
2022-11-13T05:57:06.908Z,56.47
2022-11-13T05:59:33.745Z,63.97
2022-11-13T06:02:00.569Z,58.90
2022-11-13T06:04:27.380Z,60.37
2022-11-13T06:06:54.234Z,62.13
2022-11-13T06:09:21.080Z,58.10
2022-11-13T06:11:48.739Z,56.30
2022-11-13T06:14:15.524Z,63.30
2022-11-13T06:16:42.335Z,55.40
2022-11-13T06:19:10.695Z,57.37
2022-11-13T06:21:40.357Z,60.50
2022-11-13T06:24:08.210Z,52.20
2022-11-13T06:26:36.275Z,49.63
2022-11-13T06:29:04.619Z,51.17
2022-11-13T06:31:34.569Z,50.10
2022-11-13T06:34:02.484Z,48.27
2022-11-13T06:36:32.557Z,49.60
2022-11-13T06:38:59.707Z,51.90
2022-11-13T06:41:32.364Z,44.07
2022-11-13T06:44:03.159Z,41.87
2022-11-13T06:46:31.190Z,43.93
2022-11-13T06:48:58.150Z,46.30
2022-11-13T06:51:29.035Z,38.37
2022-11-13T06:53:56.933Z,43.50
2022-11-13T06:56:24.049Z,41.90
2022-11-13T06:58:50.962Z,44.97
2022-11-13T07:01:20.416Z,39.30
2022-11-13T07:03:47.658Z,44.80
2022-11-13T07:06:18.069Z,40.57
2022-11-13T07:08:46.262Z,44.20
2022-11-13T07:11:21.615Z,37.00
2022-11-13T07:13:48.950Z,35.13
2022-11-13T07:16:17.998Z,41.07
2022-11-13T07:18:54.827Z,37.97
2022-11-13T07:21:22.497Z,38.83
2022-11-13T07:23:49.939Z,38.17
2022-11-13T07:26:17.201Z,35.33
2022-11-13T07:28:44.009Z,32.03
2022-11-13T07:31:13.130Z,35.17
2022-11-13T07:33:40.073Z,30.30
2022-11-13T07:36:08.322Z,28.43
2022-11-13T07:38:35.206Z,22.40
2022-11-13T07:41:02.048Z,24.73
2022-11-13T07:43:29.145Z,23.13
2022-11-13T07:45:58.657Z,26.27
2022-11-13T07:48:27.962Z,24.17
2022-11-13T07:50:56.705Z,24.93
2022-11-13T07:53:25.293Z,20.93
2022-11-13T07:56:09.441Z,22.83
2022-11-13T07:58:36.684Z,20.17
2022-11-13T08:01:06.534Z,22.33
2022-11-13T08:03:33.562Z,23.87
2022-11-13T08:06:05.367Z,24.50
2022-11-13T08:08:32.647Z,17.93
2022-11-13T08:11:03.112Z,18.80
2022-11-13T08:13:30.233Z,19.70
2022-11-13T08:16:00.957Z,17.47
2022-11-13T08:18:29.130Z,17.47
2022-11-13T08:20:56.910Z,17.77
2022-11-13T08:23:23.895Z,27.47
2022-11-13T08:25:50.819Z,23.03
2022-11-13T08:28:17.836Z,19.57
2022-11-13T08:30:45.972Z,18.17
2022-11-13T08:33:13.468Z,22.90
2022-11-13T08:35:40.455Z,24.60
2022-11-13T08:38:09.524Z,20.50
2022-11-13T08:40:36.836Z,18.83
2022-11-13T08:43:04.977Z,20.00
2022-11-13T08:45:32.112Z,18.83
2022-11-13T08:48:03.522Z,17.50
2022-11-13T08:50:31.334Z,25.03
2022-11-13T08:52:59.476Z,19.10
2022-11-13T08:55:27.353Z,25.13
2022-11-13T08:57:54.348Z,21.23
2022-11-13T09:00:21.396Z,23.67
2022-11-13T09:02:48.227Z,26.10
2022-11-13T09:05:15.234Z,26.37
2022-11-13T09:07:42.171Z,25.63
2022-11-13T09:10:09.388Z,29.60
2022-11-13T09:12:36.216Z,30.07
2022-11-13T09:15:03.149Z,29.27
2022-11-13T09:17:30.027Z,29.13
2022-11-13T09:20:02.178Z,28.37
2022-11-13T09:22:30.995Z,31.57
2022-11-13T09:24:57.827Z,30.73
2022-11-13T09:27:24.722Z,29.30
2022-11-13T09:29:55.534Z,32.87
2022-11-13T09:32:23.113Z,33.20
2022-11-13T09:34:49.928Z,25.93
2022-11-13T09:37:17.045Z,27.03
2022-11-13T09:39:44.237Z,23.80
2022-11-13T09:42:25.198Z,24.60
2022-11-13T09:45:10.845Z,28.03
2022-11-13T09:47:43.331Z,21.00
2022-11-13T09:50:26.853Z,21.27
2022-11-13T09:52:55.018Z,17.27
2022-11-13T09:55:31.998Z,21.80
2022-11-13T09:58:22.917Z,18.33
2022-11-13T10:00:49.918Z,19.47
2022-11-13T10:03:46.654Z,20.10
2022-11-13T10:06:23.666Z,20.90
2022-11-13T10:09:01.842Z,24.33
2022-11-13T10:11:40.893Z,17.43
2022-11-13T10:14:21.043Z,19.87
2022-11-13T10:17:02.838Z,20.60
2022-11-13T10:19:51.641Z,20.77
2022-11-13T10:22:34.589Z,18.47
2022-11-13T10:25:19.511Z,21.33
2022-11-13T10:27:58.409Z,18.00
2022-11-13T10:31:22.029Z,20.70
2022-11-13T10:33:50.853Z,18.93
2022-11-13T10:36:29.996Z,29.10
2022-11-13T10:39:09.552Z,22.27
2022-11-13T10:42:02.929Z,22.30
2022-11-13T10:44:33.703Z,18.77
2022-11-13T10:47:15.546Z,23.47
2022-11-13T10:49:42.631Z,19.53
2022-11-13T10:52:22.924Z,20.57
2022-11-13T10:54:50.777Z,20.57
2022-11-13T10:57:34.702Z,20.23
2022-11-13T11:00:02.152Z,20.00
2022-11-13T11:02:29.295Z,20.53
2022-11-13T11:05:07.065Z,18.37
2022-11-13T11:07:42.388Z,19.97
2022-11-13T11:10:36.893Z,20.40
2022-11-13T11:13:20.487Z,22.93
2022-11-13T11:16:03.921Z,21.27
2022-11-13T11:18:42.226Z,24.13
2022-11-13T11:21:15.284Z,23.57
2022-11-13T11:24:03.036Z,22.63
2022-11-13T11:26:38.797Z,18.53
2022-11-13T11:29:28.382Z,19.57
2022-11-13T11:32:15.739Z,20.00
2022-11-13T11:34:47.228Z,21.67
2022-11-13T11:37:15.133Z,22.27
2022-11-13T11:39:53.688Z,22.20
2022-11-13T11:42:26.535Z,18.93
2022-11-13T11:44:56.094Z,21.03
2022-11-13T11:47:23.047Z,19.10
2022-11-13T11:49:49.949Z,18.00
2022-11-13T11:52:36.891Z,21.83
2022-11-13T11:55:28.848Z,19.93
2022-11-13T11:58:16.439Z,21.10
2022-11-13T12:00:53.386Z,19.77
2022-11-13T12:03:36.567Z,23.17
2022-11-13T12:06:18.717Z,22.77
2022-11-13T12:09:23.030Z,21.97
2022-11-13T12:12:16.823Z,19.47
2022-11-13T12:15:02.414Z,23.57
2022-11-13T12:17:38.506Z,23.03
2022-11-13T12:20:28.638Z,20.97
2022-11-13T12:23:14.594Z,20.30
2022-11-13T12:26:32.016Z,22.40
2022-11-13T12:29:22.877Z,24.33
2022-11-13T12:32:17.207Z,23.50
2022-11-13T12:34:51.217Z,22.80
2022-11-13T12:37:49.911Z,22.27
2022-11-13T12:40:25.081Z,23.83
2022-11-13T12:43:05.083Z,22.57
2022-11-13T12:45:37.391Z,24.70
2022-11-13T12:48:16.718Z,24.90
2022-11-13T12:51:00.553Z,23.47
2022-11-13T12:53:31.179Z,28.53
2022-11-13T12:56:02.036Z,22.40
2022-11-13T12:58:32.109Z,23.90
2022-11-13T13:01:10.979Z,23.63
2022-11-13T13:04:13.588Z,25.57
2022-11-13T13:06:54.933Z,25.70
2022-11-13T13:09:24.731Z,24.77
2022-11-13T13:12:53.000Z,24.93
2022-11-13T13:15:31.451Z,23.20
2022-11-13T13:18:12.846Z,21.33
2022-11-13T13:20:45.148Z,22.23
2022-11-13T13:23:13.959Z,21.63
2022-11-13T13:25:45.925Z,22.20
2022-11-13T13:28:25.143Z,22.53
2022-11-13T13:31:25.118Z,21.73
2022-11-13T13:34:16.540Z,20.80
2022-11-13T13:37:07.479Z,20.17
2022-11-13T13:40:09.673Z,20.00
2022-11-13T13:43:00.742Z,22.57
2022-11-13T13:46:15.256Z,23.20
2022-11-13T13:48:48.995Z,21.27
2022-11-13T13:51:24.905Z,23.57
2022-11-13T13:53:52.361Z,24.87
2022-11-13T13:56:20.456Z,23.00
2022-11-13T13:58:48.334Z,24.33
2022-11-13T14:01:30.240Z,26.00
2022-11-13T14:04:25.007Z,23.87
2022-11-13T14:06:54.627Z,22.33
2022-11-13T14:09:24.813Z,24.37
2022-11-13T14:14:50.800Z,26.77
2022-11-13T14:17:24.509Z,23.63
2022-11-13T14:19:53.481Z,23.10
2022-11-13T14:22:21.941Z,25.90
2022-11-13T14:24:55.660Z,29.03
2022-11-13T14:27:26.320Z,25.80
2022-11-13T14:29:57.311Z,25.87
2022-11-13T14:32:41.897Z,25.63
2022-11-13T14:35:25.703Z,26.43
2022-11-13T14:37:55.297Z,27.70
2022-11-13T14:40:28.914Z,27.43
2022-11-13T14:42:59.313Z,26.67
2022-11-13T14:45:32.423Z,23.80
2022-11-13T14:48:00.465Z,29.73
2022-11-13T14:50:33.952Z,24.63
2022-11-13T14:53:10.838Z,25.67
2022-11-13T14:55:50.450Z,24.83
2022-11-13T14:58:32.030Z,24.20
2022-11-13T15:01:12.214Z,23.93
2022-11-13T15:03:39.108Z,23.73
2022-11-13T15:06:17.210Z,25.07
2022-11-13T15:08:45.356Z,28.30
2022-11-13T15:11:18.626Z,28.10
2022-11-13T15:13:46.115Z,23.77
2022-11-13T15:16:19.326Z,26.20
2022-11-13T15:18:51.799Z,27.27
2022-11-13T15:21:19.150Z,25.33
2022-11-13T15:23:46.017Z,27.73
2022-11-13T15:26:13.363Z,28.37
2022-11-13T15:28:40.483Z,26.27
2022-11-13T15:31:20.309Z,25.13
2022-11-13T15:33:48.207Z,25.70
2022-11-13T15:36:15.551Z,25.03
2022-11-13T15:38:42.608Z,26.67
2022-11-13T15:41:14.972Z,26.50
2022-11-13T15:43:50.452Z,28.97
2022-11-13T15:46:19.408Z,27.80
2022-11-13T15:48:46.940Z,27.70
2022-11-13T15:51:41.277Z,25.37
2022-11-13T15:54:20.446Z,33.53
2022-11-13T15:56:47.854Z,30.77
2022-11-13T15:59:15.441Z,29.67
2022-11-13T16:01:42.435Z,29.87
2022-11-13T16:04:12.020Z,29.10
2022-11-13T16:06:40.441Z,29.33
2022-11-13T16:09:12.654Z,34.13
2022-11-13T16:11:39.835Z,35.43
2022-11-13T16:14:06.702Z,34.27
2022-11-13T16:16:36.948Z,35.20
2022-11-13T16:19:09.888Z,36.00
2022-11-13T16:21:36.958Z,37.43
2022-11-13T16:24:04.051Z,34.83
2022-11-13T16:26:31.365Z,35.40
2022-11-13T16:29:13.264Z,36.57
2022-11-13T16:31:41.555Z,39.30
2022-11-13T16:34:08.398Z,38.77
2022-11-13T16:36:35.299Z,36.30
2022-11-13T16:39:02.201Z,39.67
2022-11-13T16:41:31.794Z,37.03
2022-11-13T16:43:58.803Z,37.33
2022-11-13T16:46:29.445Z,37.13
2022-11-13T16:48:56.578Z,33.43
2022-11-13T16:51:23.840Z,42.33
2022-11-13T16:53:51.047Z,38.83
2022-11-13T16:56:25.103Z,48.37
2022-11-13T16:58:52.009Z,39.57
2022-11-13T17:01:22.402Z,43.17
2022-11-13T17:03:49.637Z,39.63
2022-11-13T17:06:30.992Z,41.37
2022-11-13T17:08:59.903Z,37.73
2022-11-13T17:11:28.480Z,44.97
2022-11-13T17:13:57.620Z,50.43
2022-11-13T17:16:26.108Z,42.53
2022-11-13T17:18:53.706Z,42.33
2022-11-13T17:21:28.943Z,43.27
2022-11-13T17:24:01.438Z,46.07
2022-11-13T17:26:29.359Z,47.43
2022-11-13T17:28:58.298Z,47.13
2022-11-13T17:31:25.711Z,43.73
2022-11-13T17:33:54.133Z,57.77
2022-11-13T17:36:21.896Z,47.90
2022-11-13T17:38:49.116Z,39.23
2022-11-13T17:41:17.371Z,41.63
2022-11-13T17:43:44.431Z,31.40
2022-11-13T17:46:13.477Z,34.70
2022-11-13T17:48:40.601Z,36.43
2022-11-13T17:51:10.970Z,37.43
2022-11-13T17:53:37.924Z,43.73
2022-11-13T17:56:09.510Z,42.10
2022-11-13T17:58:44.506Z,42.37
2022-11-13T18:01:14.284Z,40.37
2022-11-13T18:03:41.580Z,39.93
2022-11-13T18:06:19.500Z,41.97
2022-11-13T18:08:46.902Z,42.43
2022-11-13T18:11:25.449Z,42.93
2022-11-13T18:13:52.915Z,39.83
2022-11-13T18:16:26.835Z,37.10
2022-11-13T18:18:55.566Z,46.10
2022-11-13T18:21:28.862Z,39.23
2022-11-13T18:24:11.867Z,50.67
2022-11-13T18:26:38.835Z,42.77
2022-11-13T18:29:05.957Z,43.13
2022-11-13T18:31:32.854Z,44.77
2022-11-13T18:34:01.956Z,38.20
2022-11-13T18:36:29.094Z,44.17
2022-11-13T18:38:56.122Z,49.00
2022-11-13T18:41:23.863Z,44.77
2022-11-13T18:43:52.242Z,46.10
2022-11-13T18:46:24.153Z,46.20
2022-11-13T18:48:51.401Z,48.07
2022-11-13T18:51:29.790Z,49.00
2022-11-13T18:53:57.338Z,43.40
2022-11-13T18:56:27.026Z,47.50
2022-11-13T18:58:56.178Z,42.20
2022-11-13T19:01:27.736Z,40.37
2022-11-13T19:04:20.883Z,44.97
2022-11-13T19:06:43.234Z,44.63
2022-11-13T19:09:15.484Z,41.77
2022-11-13T19:11:44.230Z,41.20
2022-11-13T19:14:14.677Z,42.97
2022-11-13T19:16:41.558Z,39.27
2022-11-13T19:19:15.574Z,39.63
2022-11-13T19:21:42.948Z,35.80
2022-11-13T19:24:11.756Z,35.10
2022-11-13T19:26:39.169Z,29.90
2022-11-13T19:29:05.992Z,31.10
2022-11-13T19:31:33.439Z,29.37
2022-11-13T19:34:03.557Z,27.30
2022-11-13T19:36:31.992Z,27.33
2022-11-13T19:38:59.482Z,27.90
2022-11-13T19:41:28.224Z,26.27
2022-11-13T19:43:57.033Z,23.43
2022-11-13T19:46:23.872Z,23.30
2022-11-13T19:48:52.214Z,25.17
2022-11-13T19:51:21.586Z,24.53
2022-11-13T19:53:53.549Z,22.57
2022-11-13T19:56:22.145Z,31.40
2022-11-13T19:58:50.659Z,25.97
2022-11-13T20:01:26.140Z,22.90
2022-11-13T20:03:58.089Z,22.90
2022-11-13T20:06:26.168Z,21.37
2022-11-13T20:08:52.982Z,27.93
2022-11-13T20:11:20.465Z,25.27
2022-11-13T20:13:47.613Z,21.57
2022-11-13T20:16:15.740Z,22.77
2022-11-13T20:18:43.738Z,23.27
2022-11-13T20:21:10.675Z,20.13
2022-11-13T20:23:38.026Z,26.40
2022-11-13T20:26:08.314Z,20.67
2022-11-13T20:28:35.161Z,19.67
2022-11-13T20:31:23.329Z,21.60
2022-11-13T20:33:52.532Z,22.53
2022-11-13T20:36:20.133Z,21.57
2022-11-13T20:38:52.513Z,22.67
2022-11-13T20:41:20.810Z,20.83
2022-11-13T20:43:48.680Z,22.07
2022-11-13T20:46:17.011Z,21.47
2022-11-13T20:48:46.119Z,25.43
2022-11-13T20:51:15.881Z,24.90
2022-11-13T20:53:42.983Z,26.07
2022-11-13T20:56:10.425Z,20.87
2022-11-13T20:58:37.787Z,19.07
2022-11-13T21:01:05.844Z,25.37
2022-11-13T21:03:38.504Z,22.33
2022-11-13T21:06:08.294Z,23.17
2022-11-13T21:08:35.094Z,22.63
2022-11-13T21:11:03.346Z,22.57
2022-11-13T21:13:30.775Z,24.73
2022-11-13T21:15:58.171Z,23.20
2022-11-13T21:18:25.580Z,24.40
2022-11-13T21:20:52.480Z,22.80
2022-11-13T21:23:19.306Z,23.83
2022-11-13T21:25:46.138Z,21.87
2022-11-13T21:28:12.992Z,26.73
2022-11-13T21:30:39.893Z,25.60
2022-11-13T21:33:06.701Z,25.77
2022-11-13T21:35:33.549Z,34.17
2022-11-13T21:38:04.754Z,25.63
2022-11-13T21:40:31.606Z,26.20
2022-11-13T21:42:58.404Z,25.57
2022-11-13T21:45:25.611Z,21.43
2022-11-13T21:47:53.237Z,20.77
2022-11-13T21:50:20.022Z,23.13
2022-11-13T21:52:46.871Z,22.53
2022-11-13T21:55:13.988Z,23.90
2022-11-13T21:57:40.774Z,22.63
2022-11-13T22:00:10.502Z,23.27
2022-11-13T22:02:37.409Z,23.23
2022-11-13T22:05:04.500Z,27.00
2022-11-13T22:07:31.338Z,35.83
2022-11-13T22:09:58.278Z,26.57
2022-11-13T22:12:25.121Z,26.63
2022-11-13T22:14:51.925Z,30.13
2022-11-13T22:17:18.741Z,26.77
2022-11-13T22:19:45.662Z,28.90
2022-11-13T22:22:12.549Z,29.47
2022-11-13T22:24:39.440Z,28.87
2022-11-13T22:27:06.288Z,32.23
2022-11-13T22:29:33.089Z,29.10
2022-11-13T22:31:59.885Z,28.27
2022-11-13T22:34:26.677Z,27.93
2022-11-13T22:36:53.486Z,45.03
2022-11-13T22:39:20.626Z,32.17
2022-11-13T22:41:47.530Z,30.20
2022-11-13T22:44:14.576Z,33.87
2022-11-13T22:46:41.435Z,29.77
2022-11-13T22:49:08.264Z,28.57
2022-11-13T22:51:41.611Z,33.00
2022-11-13T22:54:12.452Z,38.47
2022-11-13T22:56:41.128Z,32.70
2022-11-13T22:59:11.458Z,33.77
2022-11-13T23:01:41.138Z,32.67
2022-11-13T23:04:12.127Z,30.33
2022-11-13T23:06:39.272Z,33.43
2022-11-13T23:09:06.614Z,31.17
2022-11-13T23:11:37.991Z,30.70
2022-11-13T23:14:07.085Z,31.83
2022-11-13T23:16:34.510Z,29.77
2022-11-13T23:19:02.343Z,29.00
2022-11-13T23:21:29.805Z,28.67
2022-11-13T23:23:57.421Z,29.80
2022-11-13T23:26:25.465Z,30.67
2022-11-13T23:28:52.573Z,28.80
2022-11-13T23:31:19.736Z,27.67
2022-11-13T23:33:46.538Z,25.20
2022-11-13T23:36:14.808Z,26.70
2022-11-13T23:38:42.155Z,31.50
2022-11-13T23:41:10.155Z,25.07
2022-11-13T23:44:07.218Z,25.23
2022-11-13T23:46:23.843Z,24.03
2022-11-13T23:48:50.637Z,28.53
2022-11-13T23:51:17.471Z,25.83
2022-11-13T23:53:44.271Z,24.87
2022-11-13T23:56:11.402Z,23.83
2022-11-13T23:58:38.198Z,28.10
